sensor_id;sensor_type;location;lat;lon;timestamp;pressure;altitude;pressure_sealevel;temperature;humidity
62025;BME280;47978;49.118;12.146;2023-03-18T00:02:26;97083.28;;;2.73;85.23
62025;BME280;47978;49.118;12.146;2023-03-18T00:06:27;97075.91;;;2.68;84.68
62025;BME280;47978;49.118;12.146;2023-03-18T00:10:29;97078.19;;;2.82;84.53
62025;BME280;47978;49.118;12.146;2023-03-18T00:14:33;97079.72;;;2.67;85.31
62025;BME280;47978;49.118;12.146;2023-03-18T00:18:34;97076.47;;;2.76;84.63
62025;BME280;47978;49.118;12.146;2023-03-18T00:22:36;97066.88;;;2.63;84.77
62025;BME280;47978;49.118;12.146;2023-03-18T00:26:37;97077.81;;;2.63;84.62
62025;BME280;47978;49.118;12.146;2023-03-18T00:30:40;97088.44;;;2.64;84.81
62025;BME280;47978;49.118;12.146;2023-03-18T00:34:42;97093.84;;;2.54;84.24
62025;BME280;47978;49.118;12.146;2023-03-18T00:38:43;97100.91;;;2.50;84.52
62025;BME280;47978;49.118;12.146;2023-03-18T00:42:45;97112.59;;;2.40;83.97
62025;BME280;47978;49.118;12.146;2023-03-18T00:46:48;97108.00;;;2.46;83.53
62025;BME280;47978;49.118;12.146;2023-03-18T00:50:49;97108.25;;;2.44;83.84
62025;BME280;47978;49.118;12.146;2023-03-18T00:54:51;97111.19;;;2.33;83.85
62025;BME280;47978;49.118;12.146;2023-03-18T00:58:52;97115.31;;;2.40;83.95
62025;BME280;47978;49.118;12.146;2023-03-18T01:02:55;97116.25;;;2.19;83.79
62025;BME280;47978;49.118;12.146;2023-03-18T01:06:57;97122.72;;;2.08;84.32
62025;BME280;47978;49.118;12.146;2023-03-18T01:10:58;97110.75;;;2.09;83.75
62025;BME280;47978;49.118;12.146;2023-03-18T01:14:59;97111.56;;;2.09;85.06
62025;BME280;47978;49.118;12.146;2023-03-18T01:19:02;97121.34;;;2.05;85.00
62025;BME280;47978;49.118;12.146;2023-03-18T01:23:04;97117.25;;;2.02;84.55
62025;BME280;47978;49.118;12.146;2023-03-18T01:27:05;97114.19;;;1.99;85.05
62025;BME280;47978;49.118;12.146;2023-03-18T01:31:06;97114.75;;;2.01;85.39
62025;BME280;47978;49.118;12.146;2023-03-18T01:35:09;97122.91;;;1.96;85.39
62025;BME280;47978;49.118;12.146;2023-03-18T01:39:11;97119.88;;;1.92;85.32
62025;BME280;47978;49.118;12.146;2023-03-18T01:43:13;97132.91;;;1.85;84.56
62025;BME280;47978;49.118;12.146;2023-03-18T01:47:15;97143.44;;;1.76;85.29
62025;BME280;47978;49.118;12.146;2023-03-18T01:51:17;97130.03;;;1.70;85.17
62025;BME280;47978;49.118;12.146;2023-03-18T01:55:21;97141.28;;;1.78;84.78
62025;BME280;47978;49.118;12.146;2023-03-18T01:59:25;97139.31;;;1.69;84.85
62025;BME280;47978;49.118;12.146;2023-03-18T02:03:27;97137.63;;;1.68;85.23
62025;BME280;47978;49.118;12.146;2023-03-18T02:07:30;97143.94;;;1.68;85.55
62025;BME280;47978;49.118;12.146;2023-03-18T02:11:35;97144.63;;;1.58;85.81
62025;BME280;47978;49.118;12.146;2023-03-18T02:15:40;97142.78;;;1.64;85.26
62025;BME280;47978;49.118;12.146;2023-03-18T02:19:47;97145.44;;;1.59;85.74
62025;BME280;47978;49.118;12.146;2023-03-18T02:23:53;97148.16;;;1.54;86.32
62025;BME280;47978;49.118;12.146;2023-03-18T02:27:58;97148.44;;;1.57;85.26
62025;BME280;47978;49.118;12.146;2023-03-18T02:32:02;97151.63;;;1.49;85.65
62025;BME280;47978;49.118;12.146;2023-03-18T02:36:05;97152.97;;;1.47;85.50
62025;BME280;47978;49.118;12.146;2023-03-18T02:40:14;97164.31;;;1.39;85.61
62025;BME280;47978;49.118;12.146;2023-03-18T02:44:16;97163.19;;;1.34;85.31
62025;BME280;47978;49.118;12.146;2023-03-18T02:48:18;97162.88;;;1.31;85.93
62025;BME280;47978;49.118;12.146;2023-03-18T02:52:20;97160.91;;;1.26;85.87
62025;BME280;47978;49.118;12.146;2023-03-18T02:56:21;97157.56;;;1.19;85.88
62025;BME280;47978;49.118;12.146;2023-03-18T03:00:24;97157.38;;;1.26;85.73
62025;BME280;47978;49.118;12.146;2023-03-18T03:04:26;97158.13;;;1.21;85.96
62025;BME280;47978;49.118;12.146;2023-03-18T03:08:28;97161.72;;;1.27;85.65
62025;BME280;47978;49.118;12.146;2023-03-18T03:12:29;97164.31;;;1.17;85.75
62025;BME280;47978;49.118;12.146;2023-03-18T03:16:32;97167.31;;;1.15;85.70
62025;BME280;47978;49.118;12.146;2023-03-18T03:20:34;97171.59;;;1.11;86.09
62025;BME280;47978;49.118;12.146;2023-03-18T03:24:35;97172.91;;;1.03;86.34
62025;BME280;47978;49.118;12.146;2023-03-18T03:28:36;97170.25;;;1.08;85.67
62025;BME280;47978;49.118;12.146;2023-03-18T03:32:39;97174.03;;;1.07;86.52
62025;BME280;47978;49.118;12.146;2023-03-18T03:36:40;97180.09;;;0.93;86.39
62025;BME280;47978;49.118;12.146;2023-03-18T03:40:42;97186.66;;;0.97;86.09
62025;BME280;47978;49.118;12.146;2023-03-18T03:44:43;97189.84;;;1.10;85.92
62025;BME280;47978;49.118;12.146;2023-03-18T03:48:46;97203.59;;;0.99;85.87
62025;BME280;47978;49.118;12.146;2023-03-18T03:52:48;97207.00;;;0.89;86.25
62025;BME280;47978;49.118;12.146;2023-03-18T03:56:49;97205.28;;;0.83;86.49
62025;BME280;47978;49.118;12.146;2023-03-18T04:00:51;97203.69;;;0.87;86.05
62025;BME280;47978;49.118;12.146;2023-03-18T04:04:53;97215.00;;;0.79;86.07
62025;BME280;47978;49.118;12.146;2023-03-18T04:08:55;97217.66;;;0.74;85.93
62025;BME280;47978;49.118;12.146;2023-03-18T04:12:56;97209.47;;;0.90;86.05
62025;BME280;47978;49.118;12.146;2023-03-18T04:16:58;97216.09;;;0.78;86.43
62025;BME280;47978;49.118;12.146;2023-03-18T04:21:00;97209.25;;;0.75;87.07
62025;BME280;47978;49.118;12.146;2023-03-18T04:25:02;97207.13;;;0.77;87.08
62025;BME280;47978;49.118;12.146;2023-03-18T04:29:03;97200.09;;;0.81;87.22
62025;BME280;47978;49.118;12.146;2023-03-18T04:33:04;97202.66;;;0.71;87.66
62025;BME280;47978;49.118;12.146;2023-03-18T04:37:07;97208.84;;;0.66;88.17
62025;BME280;47978;49.118;12.146;2023-03-18T04:41:09;97203.41;;;0.66;88.56
62025;BME280;47978;49.118;12.146;2023-03-18T04:45:10;97202.91;;;0.70;87.72
62025;BME280;47978;49.118;12.146;2023-03-18T04:49:12;97218.91;;;0.66;88.34
62025;BME280;47978;49.118;12.146;2023-03-18T04:53:15;97221.94;;;0.86;87.90
62025;BME280;47978;49.118;12.146;2023-03-18T04:57:16;97227.06;;;0.83;87.92
62025;BME280;47978;49.118;12.146;2023-03-18T05:01:18;97225.91;;;0.79;88.44
62025;BME280;47978;49.118;12.146;2023-03-18T05:05:19;97232.31;;;0.89;87.58
62025;BME280;47978;49.118;12.146;2023-03-18T05:09:22;97225.16;;;0.83;86.96
62025;BME280;47978;49.118;12.146;2023-03-18T05:13:23;97228.88;;;0.77;86.99
62025;BME280;47978;49.118;12.146;2023-03-18T05:17:25;97226.72;;;0.79;86.97
62025;BME280;47978;49.118;12.146;2023-03-18T05:21:26;97221.94;;;0.86;87.13
62025;BME280;47978;49.118;12.146;2023-03-18T05:25:32;97230.03;;;0.81;87.53
62025;BME280;47978;49.118;12.146;2023-03-18T05:29:33;97224.00;;;0.79;87.78
62025;BME280;47978;49.118;12.146;2023-03-18T05:33:35;97233.56;;;0.82;87.79
62025;BME280;47978;49.118;12.146;2023-03-18T05:37:36;97240.06;;;0.98;87.40
62025;BME280;47978;49.118;12.146;2023-03-18T05:41:39;97240.97;;;1.03;87.45
62025;BME280;47978;49.118;12.146;2023-03-18T05:45:40;97240.53;;;1.11;86.94
62025;BME280;47978;49.118;12.146;2023-03-18T05:49:42;97237.91;;;1.22;87.12
62025;BME280;47978;49.118;12.146;2023-03-18T05:53:43;97235.41;;;1.37;86.59
62025;BME280;47978;49.118;12.146;2023-03-18T05:57:46;97233.31;;;1.44;86.33
62025;BME280;47978;49.118;12.146;2023-03-18T06:01:48;97226.97;;;1.61;86.11
62025;BME280;47978;49.118;12.146;2023-03-18T06:05:49;97223.78;;;1.69;86.19
62025;BME280;47978;49.118;12.146;2023-03-18T06:09:51;97220.97;;;1.86;85.86
62025;BME280;47978;49.118;12.146;2023-03-18T06:13:53;97219.78;;;2.03;85.74
62025;BME280;47978;49.118;12.146;2023-03-18T06:17:55;97232.69;;;2.45;84.39
62025;BME280;47978;49.118;12.146;2023-03-18T06:21:56;97236.00;;;2.85;82.72
62025;BME280;47978;49.118;12.146;2023-03-18T06:25:58;97231.88;;;3.25;81.79
62025;BME280;47978;49.118;12.146;2023-03-18T06:30:00;97241.88;;;3.62;80.05
62025;BME280;47978;49.118;12.146;2023-03-18T06:34:02;97239.66;;;3.64;80.12
62025;BME280;47978;49.118;12.146;2023-03-18T06:38:04;97253.72;;;3.98;78.69
62025;BME280;47978;49.118;12.146;2023-03-18T06:42:05;97240.34;;;4.01;78.84
62025;BME280;47978;49.118;12.146;2023-03-18T06:46:08;97243.41;;;4.41;77.67
62025;BME280;47978;49.118;12.146;2023-03-18T06:50:09;97253.28;;;4.57;77.10
62025;BME280;47978;49.118;12.146;2023-03-18T06:54:11;97262.31;;;4.83;77.08
62025;BME280;47978;49.118;12.146;2023-03-18T06:58:12;97262.28;;;5.09;76.50
62025;BME280;47978;49.118;12.146;2023-03-18T07:02:15;97273.44;;;5.48;75.20
62025;BME280;47978;49.118;12.146;2023-03-18T07:06:16;97271.44;;;5.69;72.96
62025;BME280;47978;49.118;12.146;2023-03-18T07:10:18;97281.25;;;5.91;72.59
62025;BME280;47978;49.118;12.146;2023-03-18T07:14:20;97280.94;;;6.02;71.55
62025;BME280;47978;49.118;12.146;2023-03-18T07:18:23;97278.66;;;6.15;71.83
62025;BME280;47978;49.118;12.146;2023-03-18T07:22:24;97287.97;;;6.29;71.74
62025;BME280;47978;49.118;12.146;2023-03-18T07:26:26;97299.38;;;6.46;70.81
62025;BME280;47978;49.118;12.146;2023-03-18T07:30:27;97296.56;;;6.51;69.71
62025;BME280;47978;49.118;12.146;2023-03-18T07:34:30;97297.25;;;6.78;69.39
62025;BME280;47978;49.118;12.146;2023-03-18T07:38:31;97300.09;;;6.96;68.72
62025;BME280;47978;49.118;12.146;2023-03-18T07:42:33;97294.50;;;7.12;68.64
62025;BME280;47978;49.118;12.146;2023-03-18T07:46:34;97297.28;;;7.36;68.47
62025;BME280;47978;49.118;12.146;2023-03-18T07:50:37;97295.53;;;7.45;68.26
62025;BME280;47978;49.118;12.146;2023-03-18T07:54:38;97284.91;;;7.86;67.87
62025;BME280;47978;49.118;12.146;2023-03-18T07:58:40;97282.13;;;8.29;66.67
62025;BME280;47978;49.118;12.146;2023-03-18T08:02:41;97280.53;;;8.66;65.68
62025;BME280;47978;49.118;12.146;2023-03-18T08:06:44;97291.56;;;8.85;64.86
62025;BME280;47978;49.118;12.146;2023-03-18T08:10:46;97291.97;;;9.11;62.75
62025;BME280;47978;49.118;12.146;2023-03-18T08:14:47;97297.59;;;9.20;62.66
62025;BME280;47978;49.118;12.146;2023-03-18T08:18:49;97295.63;;;9.39;62.22
62025;BME280;47978;49.118;12.146;2023-03-18T08:22:51;97296.75;;;9.52;61.66
62025;BME280;47978;49.118;12.146;2023-03-18T08:26:53;97299.03;;;9.78;59.43
62025;BME280;47978;49.118;12.146;2023-03-18T08:30:55;97304.97;;;9.71;57.58
62025;BME280;47978;49.118;12.146;2023-03-18T08:34:57;97298.19;;;9.63;53.74
62025;BME280;47978;49.118;12.146;2023-03-18T08:39:00;97306.06;;;9.56;52.65
62025;BME280;47978;49.118;12.146;2023-03-18T08:43:01;97310.75;;;9.56;53.34
62025;BME280;47978;49.118;12.146;2023-03-18T08:47:02;97292.19;;;9.75;52.56
62025;BME280;47978;49.118;12.146;2023-03-18T08:51:04;97299.56;;;9.94;51.10
62025;BME280;47978;49.118;12.146;2023-03-18T08:55:08;97298.72;;;9.93;51.43
62025;BME280;47978;49.118;12.146;2023-03-18T08:59:09;97302.00;;;10.09;50.44
62025;BME280;47978;49.118;12.146;2023-03-18T09:03:10;97308.97;;;10.34;49.50
62025;BME280;47978;49.118;12.146;2023-03-18T09:07:12;97313.44;;;10.57;47.82
62025;BME280;47978;49.118;12.146;2023-03-18T09:11:15;97306.78;;;10.95;48.03
62025;BME280;47978;49.118;12.146;2023-03-18T09:15:17;97305.78;;;11.13;47.05
62025;BME280;47978;49.118;12.146;2023-03-18T09:19:19;97304.97;;;11.13;47.00
62025;BME280;47978;49.118;12.146;2023-03-18T09:23:20;97313.13;;;10.95;47.50
62025;BME280;47978;49.118;12.146;2023-03-18T09:27:23;97311.88;;;11.01;47.26
62025;BME280;47978;49.118;12.146;2023-03-18T09:31:25;97306.97;;;11.21;46.71
62025;BME280;47978;49.118;12.146;2023-03-18T09:35:26;97307.66;;;11.26;46.61
62025;BME280;47978;49.118;12.146;2023-03-18T09:39:27;97302.84;;;11.41;45.82
62025;BME280;47978;49.118;12.146;2023-03-18T09:43:38;97303.50;;;11.69;45.41
62025;BME280;47978;49.118;12.146;2023-03-18T09:47:49;97303.69;;;11.41;46.36
62025;BME280;47978;49.118;12.146;2023-03-18T09:51:57;97303.16;;;11.62;45.27
62025;BME280;47978;49.118;12.146;2023-03-18T09:56:03;97298.31;;;11.67;44.57
62025;BME280;47978;49.118;12.146;2023-03-18T10:00:10;97294.56;;;12.03;45.43
62025;BME280;47978;49.118;12.146;2023-03-18T10:04:19;97291.41;;;12.36;43.77
62025;BME280;47978;49.118;12.146;2023-03-18T10:08:23;97294.53;;;12.69;43.46
62025;BME280;47978;49.118;12.146;2023-03-18T10:12:28;97299.94;;;12.83;42.75
62025;BME280;47978;49.118;12.146;2023-03-18T10:16:32;97301.59;;;13.10;42.77
62025;BME280;47978;49.118;12.146;2023-03-18T10:20:46;97294.59;;;12.95;42.04
62025;BME280;47978;49.118;12.146;2023-03-18T10:24:52;97298.16;;;13.04;43.34
62025;BME280;47978;49.118;12.146;2023-03-18T10:29:06;97289.19;;;13.16;45.25
62025;BME280;47978;49.118;12.146;2023-03-18T10:33:15;97287.56;;;13.24;45.54
62025;BME280;47978;49.118;12.146;2023-03-18T10:37:30;97282.00;;;13.41;43.94
62025;BME280;47978;49.118;12.146;2023-03-18T10:41:36;97287.72;;;13.36;45.53
62025;BME280;47978;49.118;12.146;2023-03-18T10:45:38;97282.75;;;13.59;44.20
62025;BME280;47978;49.118;12.146;2023-03-18T10:49:43;97277.63;;;13.79;43.75
62025;BME280;47978;49.118;12.146;2023-03-18T10:53:48;97274.78;;;13.58;44.48
62025;BME280;47978;49.118;12.146;2023-03-18T10:57:52;97275.78;;;13.36;44.02
62025;BME280;47978;49.118;12.146;2023-03-18T11:01:55;97276.09;;;13.17;44.85
62025;BME280;47978;49.118;12.146;2023-03-18T11:06:00;97267.63;;;13.31;45.43
62025;BME280;47978;49.118;12.146;2023-03-18T11:10:11;97267.44;;;13.44;44.86
62025;BME280;47978;49.118;12.146;2023-03-18T11:14:14;97266.22;;;13.71;44.93
62025;BME280;47978;49.118;12.146;2023-03-18T11:18:18;97250.47;;;13.84;44.20
62025;BME280;47978;49.118;12.146;2023-03-18T11:22:23;97244.88;;;13.93;44.82
62025;BME280;47978;49.118;12.146;2023-03-18T11:26:25;97242.59;;;13.95;44.77
62025;BME280;47978;49.118;12.146;2023-03-18T11:30:28;97243.00;;;14.14;43.56
62025;BME280;47978;49.118;12.146;2023-03-18T11:34:36;97249.00;;;14.16;44.91
62025;BME280;47978;49.118;12.146;2023-03-18T11:38:39;97240.09;;;14.32;44.71
62025;BME280;47978;49.118;12.146;2023-03-18T11:42:41;97226.53;;;14.51;44.80
62025;BME280;47978;49.118;12.146;2023-03-18T11:46:43;97231.25;;;14.59;43.71
62025;BME280;47978;49.118;12.146;2023-03-18T11:50:51;97228.19;;;14.73;44.27
62025;BME280;47978;49.118;12.146;2023-03-18T11:55:07;97226.03;;;14.79;45.10
62025;BME280;47978;49.118;12.146;2023-03-18T11:59:15;97215.81;;;15.04;45.49
62025;BME280;47978;49.118;12.146;2023-03-18T12:07:59;97204.50;;;15.21;45.76
62025;BME280;47978;49.118;12.146;2023-03-18T12:12:07;97202.28;;;15.15;45.85
62025;BME280;47978;49.118;12.146;2023-03-18T12:16:17;97200.44;;;15.19;46.12
62025;BME280;47978;49.118;12.146;2023-03-18T12:20:45;97194.66;;;15.24;46.67
62025;BME280;47978;49.118;12.146;2023-03-18T12:24:50;97188.97;;;15.20;47.00
62025;BME280;47978;49.118;12.146;2023-03-18T12:29:01;97184.31;;;15.24;45.96
62025;BME280;47978;49.118;12.146;2023-03-18T12:33:08;97179.44;;;15.34;45.82
62025;BME280;47978;49.118;12.146;2023-03-18T12:37:20;97174.38;;;15.48;46.05
62025;BME280;47978;49.118;12.146;2023-03-18T12:41:25;97169.84;;;15.56;45.20
62025;BME280;47978;49.118;12.146;2023-03-18T12:45:33;97156.72;;;15.56;45.63
62025;BME280;47978;49.118;12.146;2023-03-18T12:49:36;97150.63;;;15.75;45.18
62025;BME280;47978;49.118;12.146;2023-03-18T12:53:40;97144.34;;;15.78;44.85
62025;BME280;47978;49.118;12.146;2023-03-18T12:57:43;97142.25;;;15.87;44.69
62025;BME280;47978;49.118;12.146;2023-03-18T13:01:47;97137.03;;;15.98;43.73
62025;BME280;47978;49.118;12.146;2023-03-18T13:05:51;97131.56;;;15.89;45.38
62025;BME280;47978;49.118;12.146;2023-03-18T13:09:55;97137.13;;;16.14;44.41
62025;BME280;47978;49.118;12.146;2023-03-18T13:14:01;97128.00;;;16.29;45.16
62025;BME280;47978;49.118;12.146;2023-03-18T13:18:10;97130.19;;;16.36;43.59
62025;BME280;47978;49.118;12.146;2023-03-18T13:22:18;97144.28;;;16.27;43.52
62025;BME280;47978;49.118;12.146;2023-03-18T13:26:27;97142.16;;;16.49;43.87
62025;BME280;47978;49.118;12.146;2023-03-18T13:30:50;97142.97;;;16.49;43.00
62025;BME280;47978;49.118;12.146;2023-03-18T13:35:08;97154.13;;;16.49;41.95
62025;BME280;47978;49.118;12.146;2023-03-18T13:39:18;97160.97;;;16.52;41.81
62025;BME280;47978;49.118;12.146;2023-03-18T13:43:23;97159.50;;;16.30;42.51
62025;BME280;47978;49.118;12.146;2023-03-18T13:47:28;97166.03;;;16.22;42.66
62025;BME280;47978;49.118;12.146;2023-03-18T13:55:53;97144.25;;;16.52;42.20
62025;BME280;47978;49.118;12.146;2023-03-18T14:04:29;97131.75;;;16.61;41.26
62025;BME280;47978;49.118;12.146;2023-03-18T14:12:51;97129.63;;;16.71;42.09
62025;BME280;47978;49.118;12.146;2023-03-18T14:16:53;97133.03;;;16.76;40.56
62025;BME280;47978;49.118;12.146;2023-03-18T14:20:59;97115.78;;;16.74;41.36
62025;BME280;47978;49.118;12.146;2023-03-18T14:25:17;97111.09;;;16.91;40.09
62025;BME280;47978;49.118;12.146;2023-03-18T14:29:23;97098.88;;;16.83;40.15
62025;BME280;47978;49.118;12.146;2023-03-18T14:33:39;97088.19;;;16.73;40.09
62025;BME280;47978;49.118;12.146;2023-03-18T14:37:52;97089.72;;;16.70;39.48
62025;BME280;47978;49.118;12.146;2023-03-18T14:41:56;97105.56;;;16.66;39.15
62025;BME280;47978;49.118;12.146;2023-03-18T14:46:01;97103.03;;;16.61;39.53
62025;BME280;47978;49.118;12.146;2023-03-18T14:50:04;97099.72;;;16.71;38.74
62025;BME280;47978;49.118;12.146;2023-03-18T14:54:10;97102.69;;;16.62;39.80
62025;BME280;47978;49.118;12.146;2023-03-18T14:58:16;97100.59;;;16.59;40.01
62025;BME280;47978;49.118;12.146;2023-03-18T15:02:23;97087.19;;;16.65;39.44
62025;BME280;47978;49.118;12.146;2023-03-18T15:06:26;97094.50;;;16.70;39.52
62025;BME280;47978;49.118;12.146;2023-03-18T15:10:29;97090.16;;;16.56;40.48
62025;BME280;47978;49.118;12.146;2023-03-18T15:14:32;97083.00;;;16.59;40.78
62025;BME280;47978;49.118;12.146;2023-03-18T15:18:35;97086.06;;;16.26;40.38
62025;BME280;47978;49.118;12.146;2023-03-18T15:22:37;97088.50;;;16.27;40.84
62025;BME280;47978;49.118;12.146;2023-03-18T15:26:39;97088.72;;;16.34;40.75
62025;BME280;47978;49.118;12.146;2023-03-18T15:30:41;97090.66;;;16.46;40.22
62025;BME280;47978;49.118;12.146;2023-03-18T15:34:52;97095.19;;;16.38;41.04
62025;BME280;47978;49.118;12.146;2023-03-18T15:38:53;97079.88;;;16.32;40.65
62025;BME280;47978;49.118;12.146;2023-03-18T15:42:55;97082.19;;;16.30;40.92
62025;BME280;47978;49.118;12.146;2023-03-18T15:47:02;97080.06;;;16.11;41.15
62025;BME280;47978;49.118;12.146;2023-03-18T15:51:05;97080.72;;;16.21;41.35
62025;BME280;47978;49.118;12.146;2023-03-18T15:55:20;97076.66;;;16.18;42.96
62025;BME280;47978;49.118;12.146;2023-03-18T15:59:26;97075.91;;;16.05;41.93
62025;BME280;47978;49.118;12.146;2023-03-18T16:03:28;97077.59;;;16.10;42.24
62025;BME280;47978;49.118;12.146;2023-03-18T16:07:31;97081.25;;;15.98;44.68
62025;BME280;47978;49.118;12.146;2023-03-18T16:11:32;97074.31;;;15.80;44.92
62025;BME280;47978;49.118;12.146;2023-03-18T16:15:34;97084.06;;;15.49;48.13
62025;BME280;47978;49.118;12.146;2023-03-18T16:19:36;97088.50;;;14.92;52.03
62025;BME280;47978;49.118;12.146;2023-03-18T16:23:38;97096.19;;;14.62;53.44
62025;BME280;47978;49.118;12.146;2023-03-18T16:27:41;97098.59;;;14.09;54.92
62025;BME280;47978;49.118;12.146;2023-03-18T16:31:42;97105.41;;;13.91;56.46
62025;BME280;47978;49.118;12.146;2023-03-18T16:35:44;97110.66;;;13.63;57.19
62025;BME280;47978;49.118;12.146;2023-03-18T16:39:47;97111.09;;;13.44;58.17
62025;BME280;47978;49.118;12.146;2023-03-18T16:43:48;97105.91;;;13.34;58.81
62025;BME280;47978;49.118;12.146;2023-03-18T16:47:50;97119.28;;;12.85;61.11
62025;BME280;47978;49.118;12.146;2023-03-18T16:51:54;97116.88;;;12.57;62.19
62025;BME280;47978;49.118;12.146;2023-03-18T16:55:57;97122.44;;;12.31;63.26
62025;BME280;47978;49.118;12.146;2023-03-18T16:59:59;97129.44;;;11.93;64.94
62025;BME280;47978;49.118;12.146;2023-03-18T17:04:00;97132.94;;;11.77;65.36
62025;BME280;47978;49.118;12.146;2023-03-18T17:08:06;97133.28;;;11.26;66.94
62025;BME280;47978;49.118;12.146;2023-03-18T17:12:11;97139.44;;;11.23;67.19
62025;BME280;47978;49.118;12.146;2023-03-18T17:16:14;97133.03;;;11.06;66.80
62025;BME280;47978;49.118;12.146;2023-03-18T17:20:18;97125.63;;;10.92;66.98
62025;BME280;47978;49.118;12.146;2023-03-18T17:24:20;97138.84;;;10.73;67.62
62025;BME280;47978;49.118;12.146;2023-03-18T17:28:30;97136.88;;;10.65;67.62
62025;BME280;47978;49.118;12.146;2023-03-18T17:32:33;97133.38;;;10.50;68.14
62025;BME280;47978;49.118;12.146;2023-03-18T17:36:34;97136.38;;;10.40;68.56
62025;BME280;47978;49.118;12.146;2023-03-18T17:40:36;97146.22;;;10.19;69.30
62025;BME280;47978;49.118;12.146;2023-03-18T17:44:38;97136.75;;;10.11;69.88
62025;BME280;47978;49.118;12.146;2023-03-18T17:48:40;97141.19;;;9.98;70.18
62025;BME280;47978;49.118;12.146;2023-03-18T17:52:41;97138.34;;;9.89;71.06
62025;BME280;47978;49.118;12.146;2023-03-18T17:56:43;97141.25;;;9.71;71.33
62025;BME280;47978;49.118;12.146;2023-03-18T18:00:46;97132.28;;;9.51;72.42
62025;BME280;47978;49.118;12.146;2023-03-18T18:04:47;97132.09;;;9.34;72.98
62025;BME280;47978;49.118;12.146;2023-03-18T18:08:49;97137.19;;;9.27;73.43
62025;BME280;47978;49.118;12.146;2023-03-18T18:12:50;97149.53;;;9.15;73.55
62025;BME280;47978;49.118;12.146;2023-03-18T18:16:53;97150.97;;;9.13;73.87
62025;BME280;47978;49.118;12.146;2023-03-18T18:20:55;97152.00;;;9.03;74.32
62025;BME280;47978;49.118;12.146;2023-03-18T18:24:57;97148.56;;;8.78;75.59
62025;BME280;47978;49.118;12.146;2023-03-18T18:28:59;97149.25;;;8.70;75.54
62025;BME280;47978;49.118;12.146;2023-03-18T18:33:01;97139.88;;;8.71;74.96
62025;BME280;47978;49.118;12.146;2023-03-18T18:37:03;97150.66;;;8.54;76.32
62025;BME280;47978;49.118;12.146;2023-03-18T18:41:04;97146.94;;;8.45;76.56
62025;BME280;47978;49.118;12.146;2023-03-18T18:45:06;97156.75;;;8.32;76.71
62025;BME280;47978;49.118;12.146;2023-03-18T18:49:10;97153.50;;;8.11;77.85
62025;BME280;47978;49.118;12.146;2023-03-18T18:53:17;97166.16;;;8.12;77.72
62025;BME280;47978;49.118;12.146;2023-03-18T18:57:22;97164.66;;;8.01;76.58
62025;BME280;47978;49.118;12.146;2023-03-18T19:01:24;97153.72;;;7.96;76.49
62025;BME280;47978;49.118;12.146;2023-03-18T19:05:27;97146.59;;;7.95;76.27
62025;BME280;47978;49.118;12.146;2023-03-18T19:09:28;97146.84;;;7.55;78.01
62025;BME280;47978;49.118;12.146;2023-03-18T19:13:30;97145.28;;;7.49;78.43
62025;BME280;47978;49.118;12.146;2023-03-18T19:17:32;97139.41;;;7.56;77.64
62025;BME280;47978;49.118;12.146;2023-03-18T19:21:35;97139.50;;;7.27;79.61
62025;BME280;47978;49.118;12.146;2023-03-18T19:25:36;97133.03;;;7.17;79.46
62025;BME280;47978;49.118;12.146;2023-03-18T19:29:37;97142.72;;;7.10;79.28
62025;BME280;47978;49.118;12.146;2023-03-18T19:33:39;97128.41;;;7.13;78.99
62025;BME280;47978;49.118;12.146;2023-03-18T19:37:43;97127.28;;;7.14;79.15
62025;BME280;47978;49.118;12.146;2023-03-18T19:41:45;97132.91;;;7.04;79.25
62025;BME280;47978;49.118;12.146;2023-03-18T19:45:47;97144.34;;;6.87;78.58
62025;BME280;47978;49.118;12.146;2023-03-18T19:49:50;97135.34;;;6.81;79.33
62025;BME280;47978;49.118;12.146;2023-03-18T19:53:54;97132.09;;;6.74;79.26
62025;BME280;47978;49.118;12.146;2023-03-18T19:57:55;97139.84;;;6.72;79.60
62025;BME280;47978;49.118;12.146;2023-03-18T20:01:56;97144.84;;;6.65;79.71
62025;BME280;47978;49.118;12.146;2023-03-18T20:05:58;97147.13;;;6.58;80.03
62025;BME280;47978;49.118;12.146;2023-03-18T20:10:01;97145.47;;;6.57;79.47
62025;BME280;47978;49.118;12.146;2023-03-18T20:14:02;97153.53;;;6.43;80.48
62025;BME280;47978;49.118;12.146;2023-03-18T20:18:04;97152.78;;;6.37;80.99
62025;BME280;47978;49.118;12.146;2023-03-18T20:22:07;97151.75;;;6.28;81.34
62025;BME280;47978;49.118;12.146;2023-03-18T20:26:10;97157.28;;;6.23;81.21
62025;BME280;47978;49.118;12.146;2023-03-18T20:30:18;97154.88;;;6.16;80.92
62025;BME280;47978;49.118;12.146;2023-03-18T20:34:21;97176.84;;;6.11;81.36
62025;BME280;47978;49.118;12.146;2023-03-18T20:38:23;97176.38;;;6.04;81.43
62025;BME280;47978;49.118;12.146;2023-03-18T20:42:27;97172.28;;;6.01;81.54
62025;BME280;47978;49.118;12.146;2023-03-18T20:46:29;97174.47;;;5.99;81.56
62025;BME280;47978;49.118;12.146;2023-03-18T20:50:30;97176.09;;;6.00;82.01
62025;BME280;47978;49.118;12.146;2023-03-18T20:54:32;97173.59;;;6.09;82.10
62025;BME280;47978;49.118;12.146;2023-03-18T20:58:34;97172.75;;;6.08;82.34
62025;BME280;47978;49.118;12.146;2023-03-18T21:02:36;97175.81;;;6.07;82.45
62025;BME280;47978;49.118;12.146;2023-03-18T21:06:37;97179.97;;;5.99;82.68
62025;BME280;47978;49.118;12.146;2023-03-18T21:10:39;97175.06;;;5.86;83.54
62025;BME280;47978;49.118;12.146;2023-03-18T21:14:41;97176.97;;;5.91;84.02
62025;BME280;47978;49.118;12.146;2023-03-18T21:18:43;97180.25;;;5.93;83.92
62025;BME280;47978;49.118;12.146;2023-03-18T21:22:44;97181.16;;;5.78;84.45
62025;BME280;47978;49.118;12.146;2023-03-18T21:26:46;97177.00;;;5.80;84.16
62025;BME280;47978;49.118;12.146;2023-03-18T21:31:08;97175.06;;;5.86;83.95
62025;BME280;47978;49.118;12.146;2023-03-18T21:35:18;97184.41;;;5.85;84.22
62025;BME280;47978;49.118;12.146;2023-03-18T21:39:20;97186.03;;;5.86;83.80